Booneville, North Carolina
Current Conditions -  °F | °C
As of 5:35 PM on Tuesday 21 Oct 2014 (Local Time) from KMWK Reporting Station
Scattered Clouds Scattered Clouds  
Wind Chill: 64°   Ceiling: Unl
Heat Index: 64°   Visibility: 10mi
Dew Point: 40°   Wind: 9mph
Humidity: 42%   Direction: 300°WNW
Pressure: 29.92"   Gusts: NA
Location:  36.2374°N, 80.6343°W
Report Text: KMWK 212135Z AUTO 30008KT 10SM SCT080 18/05 A2992 RMK AO2 T01770045
Loading
Personal Weather Stations






























Interactive Weather Map
Tropical Storm Tracking
New forecast layout! Learn more

10-Day Weather Forecast

Advertisements
Track Severe Weather on mobile